sensor_id;sensor_type;location;lat;lon;timestamp;pressure;altitude;pressure_sealevel;temperature;humidity
63622;BME280;49770;47.544;19.074;2023-03-14T05:14:47;99217.78;;;3.80;100.00
63622;BME280;49770;47.544;19.074;2023-03-14T05:17:51;99210.53;;;3.87;100.00
63622;BME280;49770;47.544;19.074;2023-03-14T05:20:55;99208.13;;;4.03;100.00
63622;BME280;49770;47.544;19.074;2023-03-14T05:23:59;99201.63;;;4.12;100.00
63622;BME280;49770;47.544;19.074;2023-03-14T05:27:04;99209.44;;;4.34;98.74
63622;BME280;49770;47.544;19.074;2023-03-14T05:30:08;99204.66;;;4.44;99.35
63622;BME280;49770;47.544;19.074;2023-03-14T05:33:13;99211.56;;;4.66;96.58
63622;BME280;49770;47.544;19.074;2023-03-14T05:36:16;99208.50;;;4.96;93.99
63622;BME280;49770;47.544;19.074;2023-03-14T05:39:19;99210.06;;;5.19;93.27
63622;BME280;49770;47.544;19.074;2023-03-14T05:42:22;99210.47;;;5.68;87.36
63622;BME280;49770;47.544;19.074;2023-03-14T05:45:25;99196.81;;;6.15;85.00
63622;BME280;49770;47.544;19.074;2023-03-14T05:48:29;99198.78;;;6.45;82.95
63622;BME280;49770;47.544;19.074;2023-03-14T05:51:32;99195.41;;;6.77;82.20
63622;BME280;49770;47.544;19.074;2023-03-14T05:54:35;99200.22;;;7.03;77.53
63622;BME280;49770;47.544;19.074;2023-03-14T05:57:38;99186.78;;;7.39;74.41
63622;BME280;49770;47.544;19.074;2023-03-14T06:00:44;99197.50;;;7.68;72.20
63622;BME280;49770;47.544;19.074;2023-03-14T06:03:48;99196.38;;;7.89;71.45
63622;BME280;49770;47.544;19.074;2023-03-14T06:06:51;99195.44;;;8.20;69.81
63622;BME280;49770;47.544;19.074;2023-03-14T06:09:55;99203.91;;;8.56;69.29
63622;BME280;49770;47.544;19.074;2023-03-14T06:12:58;99205.09;;;8.81;65.27
63622;BME280;49770;47.544;19.074;2023-03-14T06:16:01;99206.75;;;9.11;64.11
63622;BME280;49770;47.544;19.074;2023-03-14T06:19:04;99196.41;;;8.94;62.83
63622;BME280;49770;47.544;19.074;2023-03-14T06:22:07;99194.47;;;9.94;59.05
63622;BME280;49770;47.544;19.074;2023-03-14T06:25:10;99204.62;;;11.56;53.56
63622;BME280;49770;47.544;19.074;2023-03-14T06:28:15;99196.75;;;12.17;49.63
63622;BME280;49770;47.544;19.074;2023-03-14T06:31:17;99200.72;;;11.49;50.43
63622;BME280;49770;47.544;19.074;2023-03-14T06:34:21;99204.88;;;10.90;52.54
63622;BME280;49770;47.544;19.074;2023-03-14T06:37:24;99202.97;;;10.66;53.67
63622;BME280;49770;47.544;19.074;2023-03-14T06:40:30;99185.75;;;10.33;54.75
63622;BME280;49770;47.544;19.074;2023-03-14T06:43:33;99191.97;;;10.19;54.99
63622;BME280;49770;47.544;19.074;2023-03-14T06:46:37;99196.62;;;10.02;55.64
63622;BME280;49770;47.544;19.074;2023-03-14T06:49:39;99187.91;;;10.00;55.78
63622;BME280;49770;47.544;19.074;2023-03-14T06:52:43;99186.06;;;9.88;56.52
63622;BME280;49770;47.544;19.074;2023-03-14T06:55:50;99195.59;;;9.77;56.83
63622;BME280;49770;47.544;19.074;2023-03-14T06:58:54;99189.09;;;9.68;57.56
63622;BME280;49770;47.544;19.074;2023-03-14T07:01:57;99182.12;;;9.80;57.46
63622;BME280;49770;47.544;19.074;2023-03-14T07:05:00;99178.91;;;9.75;57.67
63622;BME280;49770;47.544;19.074;2023-03-14T07:08:07;99182.84;;;9.82;57.72
63622;BME280;49770;47.544;19.074;2023-03-14T07:11:10;99182.81;;;9.97;57.50
63622;BME280;49770;47.544;19.074;2023-03-14T07:14:14;99179.81;;;9.89;57.71
63622;BME280;49770;47.544;19.074;2023-03-14T07:17:17;99184.66;;;10.09;56.95
63622;BME280;49770;47.544;19.074;2023-03-14T07:20:20;99174.62;;;10.41;56.56
63622;BME280;49770;47.544;19.074;2023-03-14T07:23:23;99183.69;;;10.77;54.91
63622;BME280;49770;47.544;19.074;2023-03-14T07:26:26;99182.38;;;10.96;54.42
63622;BME280;49770;47.544;19.074;2023-03-14T07:29:29;99178.00;;;11.08;54.20
63622;BME280;49770;47.544;19.074;2023-03-14T07:32:33;99174.97;;;10.88;54.62
63622;BME280;49770;47.544;19.074;2023-03-14T07:35:37;99172.94;;;11.66;53.05
63622;BME280;49770;47.544;19.074;2023-03-14T07:38:40;99169.25;;;12.40;50.20
63622;BME280;49770;47.544;19.074;2023-03-14T07:41:43;99165.03;;;12.72;49.43
63622;BME280;49770;47.544;19.074;2023-03-14T07:44:53;99162.44;;;13.51;47.20
63622;BME280;49770;47.544;19.074;2023-03-14T07:47:56;99157.50;;;14.54;44.92
63622;BME280;49770;47.544;19.074;2023-03-14T07:51:00;99160.13;;;15.67;42.27
63622;BME280;49770;47.544;19.074;2023-03-14T07:54:03;99146.63;;;15.49;42.19
63622;BME280;49770;47.544;19.074;2023-03-14T07:57:05;99153.13;;;14.53;43.93
63622;BME280;49770;47.544;19.074;2023-03-14T08:00:09;99146.09;;;14.09;45.50
63622;BME280;49770;47.544;19.074;2023-03-14T08:03:16;99150.41;;;15.05;43.61
63622;BME280;49770;47.544;19.074;2023-03-14T08:06:19;99144.62;;;15.51;42.65
63622;BME280;49770;47.544;19.074;2023-03-14T08:09:22;99145.19;;;15.35;42.53
63622;BME280;49770;47.544;19.074;2023-03-14T08:12:25;99137.88;;;15.76;41.89
63622;BME280;49770;47.544;19.074;2023-03-14T08:15:29;99127.47;;;16.33;41.08
63622;BME280;49770;47.544;19.074;2023-03-14T08:18:33;99124.37;;;15.88;41.72
63622;BME280;49770;47.544;19.074;2023-03-14T08:21:35;99122.28;;;15.52;42.59
63622;BME280;49770;47.544;19.074;2023-03-14T08:24:38;99112.84;;;15.58;43.03
63622;BME280;49770;47.544;19.074;2023-03-14T08:27:42;99116.50;;;16.26;41.78
63622;BME280;49770;47.544;19.074;2023-03-14T08:30:46;99118.63;;;16.60;40.50
63622;BME280;49770;47.544;19.074;2023-03-14T08:33:49;99112.09;;;17.38;39.86
63622;BME280;49770;47.544;19.074;2023-03-14T08:36:54;99110.50;;;19.31;35.76
63622;BME280;49770;47.544;19.074;2023-03-14T08:39:59;99106.34;;;19.62;34.92
63622;BME280;49770;47.544;19.074;2023-03-14T08:43:02;99108.84;;;20.46;33.28
63622;BME280;49770;47.544;19.074;2023-03-14T08:46:05;99106.69;;;22.24;30.74
63622;BME280;49770;47.544;19.074;2023-03-14T08:49:08;99106.34;;;22.42;30.41
63622;BME280;49770;47.544;19.074;2023-03-14T08:52:11;99097.19;;;23.03;29.60
63622;BME280;49770;47.544;19.074;2023-03-14T08:55:14;99085.75;;;20.60;32.61
63622;BME280;49770;47.544;19.074;2023-03-14T08:58:17;99080.28;;;20.77;32.59
63622;BME280;49770;47.544;19.074;2023-03-14T09:01:20;99071.50;;;20.92;32.62
63622;BME280;49770;47.544;19.074;2023-03-14T09:04:26;99066.22;;;20.58;33.05
63622;BME280;49770;47.544;19.074;2023-03-14T09:07:29;99058.25;;;19.59;34.29
63622;BME280;49770;47.544;19.074;2023-03-14T09:10:32;99044.50;;;18.94;35.65
63622;BME280;49770;47.544;19.074;2023-03-14T09:13:35;99051.50;;;19.13;35.46
63622;BME280;49770;47.544;19.074;2023-03-14T09:16:38;99056.91;;;19.30;35.37
63622;BME280;49770;47.544;19.074;2023-03-14T09:19:41;99057.22;;;19.35;36.97
63622;BME280;49770;47.544;19.074;2023-03-14T09:22:44;99051.78;;;18.58;35.86
63622;BME280;49770;47.544;19.074;2023-03-14T09:25:47;99045.97;;;18.10;36.99
63622;BME280;49770;47.544;19.074;2023-03-14T09:28:49;99042.50;;;18.44;36.91
63622;BME280;49770;47.544;19.074;2023-03-14T09:31:52;99042.88;;;18.23;37.44
63622;BME280;49770;47.544;19.074;2023-03-14T09:34:55;99025.53;;;18.44;37.18
63622;BME280;49770;47.544;19.074;2023-03-14T09:37:58;99014.59;;;18.89;36.32
63622;BME280;49770;47.544;19.074;2023-03-14T09:41:03;99022.78;;;18.70;36.18
63622;BME280;49770;47.544;19.074;2023-03-14T09:44:14;99021.34;;;19.01;36.16
63622;BME280;49770;47.544;19.074;2023-03-14T09:47:18;99018.66;;;18.93;35.79
63622;BME280;49770;47.544;19.074;2023-03-14T09:50:23;99016.81;;;19.02;35.87
63622;BME280;49770;47.544;19.074;2023-03-14T09:56:41;98993.72;;;19.50;35.13
63622;BME280;49770;47.544;19.074;2023-03-14T09:59:45;98983.38;;;18.79;37.09
63622;BME280;49770;47.544;19.074;2023-03-14T10:02:53;98994.47;;;18.84;36.87
63622;BME280;49770;47.544;19.074;2023-03-14T10:05:56;98973.19;;;19.08;36.34
63622;BME280;49770;47.544;19.074;2023-03-14T10:08:59;98963.47;;;19.15;36.21
63622;BME280;49770;47.544;19.074;2023-03-14T10:12:02;98952.22;;;19.11;36.79
63622;BME280;49770;47.544;19.074;2023-03-14T10:15:13;98947.84;;;19.10;37.09
63622;BME280;49770;47.544;19.074;2023-03-14T10:18:23;98942.97;;;19.56;36.33
63622;BME280;49770;47.544;19.074;2023-03-14T10:21:29;98945.25;;;18.76;37.28
63622;BME280;49770;47.544;19.074;2023-03-14T10:24:34;98923.50;;;18.36;38.56
63622;BME280;49770;47.544;19.074;2023-03-14T10:27:37;98909.53;;;19.25;37.71
63622;BME280;49770;47.544;19.074;2023-03-14T10:30:44;98903.87;;;19.93;36.47
63622;BME280;49770;47.544;19.074;2023-03-14T10:34:02;98903.87;;;20.01;35.90
63622;BME280;49770;47.544;19.074;2023-03-14T10:37:08;98894.00;;;20.57;34.25
63622;BME280;49770;47.544;19.074;2023-03-14T10:40:26;98895.31;;;20.93;33.37
63622;BME280;49770;47.544;19.074;2023-03-14T10:43:35;98879.13;;;20.93;32.96
63622;BME280;49770;47.544;19.074;2023-03-14T10:46:38;98883.28;;;21.19;32.94
63622;BME280;49770;47.544;19.074;2023-03-14T10:49:57;98895.25;;;21.39;32.14
63622;BME280;49770;47.544;19.074;2023-03-14T10:53:17;98873.97;;;20.83;33.10
63622;BME280;49770;47.544;19.074;2023-03-14T10:56:23;98884.41;;;21.09;32.90
63622;BME280;49770;47.544;19.074;2023-03-14T10:59:35;98875.59;;;21.16;32.76
63622;BME280;49770;47.544;19.074;2023-03-14T11:06:04;98868.25;;;21.24;32.43
63622;BME280;49770;47.544;19.074;2023-03-14T11:09:18;98854.59;;;21.41;32.15
63622;BME280;49770;47.544;19.074;2023-03-14T11:15:53;98845.50;;;22.76;30.04
63622;BME280;49770;47.544;19.074;2023-03-14T11:22:47;98833.75;;;22.10;30.32
63622;BME280;49770;47.544;19.074;2023-03-14T11:35:49;98807.81;;;21.19;32.82
63622;BME280;49770;47.544;19.074;2023-03-14T11:38:57;98790.91;;;21.70;32.52
63622;BME280;49770;47.544;19.074;2023-03-14T11:42:00;98793.47;;;22.30;31.48
63622;BME280;49770;47.544;19.074;2023-03-14T11:45:17;98793.75;;;21.99;31.48
63622;BME280;49770;47.544;19.074;2023-03-14T11:48:35;98783.25;;;21.28;32.72
63622;BME280;49770;47.544;19.074;2023-03-14T11:51:41;98766.87;;;20.62;33.64
63622;BME280;49770;47.544;19.074;2023-03-14T11:54:52;98769.53;;;20.85;33.49
63622;BME280;49770;47.544;19.074;2023-03-14T11:58:00;98769.13;;;21.11;33.01
63622;BME280;49770;47.544;19.074;2023-03-14T12:01:08;98763.06;;;20.94;32.83
63622;BME280;49770;47.544;19.074;2023-03-14T12:10:52;98750.53;;;20.16;34.06
63622;BME280;49770;47.544;19.074;2023-03-14T12:13:55;98744.59;;;20.21;34.40
63622;BME280;49770;47.544;19.074;2023-03-14T12:17:17;98737.84;;;20.02;34.48
63622;BME280;49770;47.544;19.074;2023-03-14T12:20:23;98737.78;;;20.33;34.17
63622;BME280;49770;47.544;19.074;2023-03-14T12:23:28;98732.66;;;20.24;33.69
63622;BME280;49770;47.544;19.074;2023-03-14T12:26:53;98731.53;;;20.18;34.01
63622;BME280;49770;47.544;19.074;2023-03-14T12:30:16;98721.22;;;19.98;33.93
63622;BME280;49770;47.544;19.074;2023-03-14T12:33:30;98716.84;;;19.65;34.68
63622;BME280;49770;47.544;19.074;2023-03-14T12:37:05;98717.09;;;19.79;34.26
63622;BME280;49770;47.544;19.074;2023-03-14T12:40:30;98705.44;;;19.63;34.62
63622;BME280;49770;47.544;19.074;2023-03-14T12:43:35;98710.63;;;19.65;34.80
63622;BME280;49770;47.544;19.074;2023-03-14T12:46:39;98697.06;;;19.82;34.83
63622;BME280;49770;47.544;19.074;2023-03-14T12:49:43;98699.19;;;19.63;35.05
63622;BME280;49770;47.544;19.074;2023-03-14T13:02:44;98682.78;;;19.18;35.52
63622;BME280;49770;47.544;19.074;2023-03-14T13:06:01;98682.94;;;19.24;35.59
63622;BME280;49770;47.544;19.074;2023-03-14T13:12:39;98676.28;;;18.95;37.64
63622;BME280;49770;47.544;19.074;2023-03-14T13:15:45;98670.56;;;18.90;37.56
63622;BME280;49770;47.544;19.074;2023-03-14T13:18:50;98669.06;;;18.96;36.80
63622;BME280;49770;47.544;19.074;2023-03-14T13:22:04;98668.09;;;18.80;37.25
63622;BME280;49770;47.544;19.074;2023-03-14T13:25:10;98681.19;;;18.75;37.49
63622;BME280;49770;47.544;19.074;2023-03-14T13:28:14;98682.19;;;18.74;37.22
63622;BME280;49770;47.544;19.074;2023-03-14T13:31:23;98686.22;;;18.78;36.77
63622;BME280;49770;47.544;19.074;2023-03-14T13:34:32;98701.34;;;18.63;37.14
63622;BME280;49770;47.544;19.074;2023-03-14T13:37:39;98698.84;;;18.53;37.55
63622;BME280;49770;47.544;19.074;2023-03-14T13:40:43;98703.72;;;18.41;37.80
63622;BME280;49770;47.544;19.074;2023-03-14T13:43:48;98715.13;;;18.35;38.08
63622;BME280;49770;47.544;19.074;2023-03-14T13:46:51;98702.22;;;18.38;38.19
63622;BME280;49770;47.544;19.074;2023-03-14T13:49:53;98706.88;;;18.36;38.62
63622;BME280;49770;47.544;19.074;2023-03-14T13:53:02;98693.50;;;18.44;38.20
63622;BME280;49770;47.544;19.074;2023-03-14T13:56:08;98703.72;;;18.41;38.48
63622;BME280;49770;47.544;19.074;2023-03-14T13:59:25;98708.25;;;18.40;38.25
63622;BME280;49770;47.544;19.074;2023-03-14T14:02:28;98703.38;;;18.44;38.24
63622;BME280;49770;47.544;19.074;2023-03-14T14:05:33;98707.75;;;18.53;38.05
63622;BME280;49770;47.544;19.074;2023-03-14T14:08:41;98713.13;;;18.53;38.23
63622;BME280;49770;47.544;19.074;2023-03-14T14:12:11;98704.34;;;18.68;37.73
63622;BME280;49770;47.544;19.074;2023-03-14T14:15:25;98696.63;;;18.73;37.50
63622;BME280;49770;47.544;19.074;2023-03-14T14:18:31;98694.81;;;18.74;37.39
63622;BME280;49770;47.544;19.074;2023-03-14T14:21:34;98693.47;;;18.61;37.64
63622;BME280;49770;47.544;19.074;2023-03-14T14:24:38;98695.28;;;18.77;37.30
63622;BME280;49770;47.544;19.074;2023-03-14T14:27:44;98689.03;;;18.85;37.18
63622;BME280;49770;47.544;19.074;2023-03-14T14:31:17;98684.84;;;18.82;37.18
63622;BME280;49770;47.544;19.074;2023-03-14T14:34:20;98695.59;;;18.91;36.59
63622;BME280;49770;47.544;19.074;2023-03-14T14:37:28;98692.91;;;18.82;36.67
63622;BME280;49770;47.544;19.074;2023-03-14T14:40:33;98691.25;;;18.73;36.38
63622;BME280;49770;47.544;19.074;2023-03-14T14:43:38;98688.09;;;18.69;36.68
63622;BME280;49770;47.544;19.074;2023-03-14T14:46:42;98690.25;;;18.74;36.32
63622;BME280;49770;47.544;19.074;2023-03-14T14:49:47;98690.78;;;18.69;36.69
63622;BME280;49770;47.544;19.074;2023-03-14T14:52:59;98688.41;;;18.75;36.81
63622;BME280;49770;47.544;19.074;2023-03-14T14:56:24;98679.50;;;18.74;36.72
63622;BME280;49770;47.544;19.074;2023-03-14T14:59:28;98684.84;;;18.82;36.79
63622;BME280;49770;47.544;19.074;2023-03-14T15:02:38;98684.72;;;18.76;36.94
63622;BME280;49770;47.544;19.074;2023-03-14T15:05:48;98690.13;;;18.67;37.28
63622;BME280;49770;47.544;19.074;2023-03-14T15:08:52;98684.56;;;18.69;37.55
63622;BME280;49770;47.544;19.074;2023-03-14T15:11:56;98691.44;;;18.55;37.91
63622;BME280;49770;47.544;19.074;2023-03-14T15:14:59;98688.63;;;18.31;38.31
63622;BME280;49770;47.544;19.074;2023-03-14T15:18:02;98693.16;;;18.14;39.27
63622;BME280;49770;47.544;19.074;2023-03-14T15:21:05;98699.63;;;17.95;40.39
63622;BME280;49770;47.544;19.074;2023-03-14T15:24:09;98706.69;;;17.96;40.71
63622;BME280;49770;47.544;19.074;2023-03-14T15:27:13;98715.72;;;17.95;40.71
63622;BME280;49770;47.544;19.074;2023-03-14T15:30:17;98716.38;;;17.72;41.31
63622;BME280;49770;47.544;19.074;2023-03-14T15:33:25;98720.50;;;17.58;41.04
63622;BME280;49770;47.544;19.074;2023-03-14T15:36:31;98736.37;;;17.51;41.51
63622;BME280;49770;47.544;19.074;2023-03-14T15:39:34;98722.53;;;17.56;41.63
63622;BME280;49770;47.544;19.074;2023-03-14T15:42:37;98730.00;;;17.52;41.59
63622;BME280;49770;47.544;19.074;2023-03-14T15:45:40;98724.78;;;17.43;41.87
63622;BME280;49770;47.544;19.074;2023-03-14T15:48:45;98744.00;;;17.30;41.79
63622;BME280;49770;47.544;19.074;2023-03-14T15:51:48;98770.94;;;17.20;42.38
63622;BME280;49770;47.544;19.074;2023-03-14T15:54:51;98781.44;;;17.13;46.85
63622;BME280;49770;47.544;19.074;2023-03-14T15:57:54;98783.44;;;16.30;57.23
63622;BME280;49770;47.544;19.074;2023-03-14T16:00:56;98804.66;;;15.57;66.56
63622;BME280;49770;47.544;19.074;2023-03-14T16:03:59;98800.03;;;15.21;70.28
63622;BME280;49770;47.544;19.074;2023-03-14T16:07:04;98807.34;;;15.09;72.61
63622;BME280;49770;47.544;19.074;2023-03-14T16:10:10;98807.66;;;14.67;77.19
63622;BME280;49770;47.544;19.074;2023-03-14T16:13:14;98813.56;;;14.41;81.56
63622;BME280;49770;47.544;19.074;2023-03-14T16:16:17;98811.84;;;14.10;87.60
63622;BME280;49770;47.544;19.074;2023-03-14T16:19:20;98808.16;;;13.92;91.65
